sensor_id;sensor_type;location;lat;lon;timestamp;P1;durP1;ratioP1;P2;durP2;ratioP2
29958;SDS011;16815;51.100;6.516;2023-04-22T00:00:20;5.67;;;4.63;;
29958;SDS011;16815;51.100;6.516;2023-04-22T00:02:46;6.70;;;4.80;;
29958;SDS011;16815;51.100;6.516;2023-04-22T00:05:12;5.90;;;5.30;;
29958;SDS011;16815;51.100;6.516;2023-04-22T00:07:40;6.73;;;5.00;;
29958;SDS011;16815;51.100;6.516;2023-04-22T00:10:07;7.83;;;4.70;;
29958;SDS011;16815;51.100;6.516;2023-04-22T00:12:33;6.77;;;5.27;;
29958;SDS011;16815;51.100;6.516;2023-04-22T00:14:59;8.43;;;5.67;;
29958;SDS011;16815;51.100;6.516;2023-04-22T00:17:25;6.03;;;4.90;;
29958;SDS011;16815;51.100;6.516;2023-04-22T00:19:51;7.73;;;5.60;;
29958;SDS011;16815;51.100;6.516;2023-04-22T00:22:18;6.77;;;5.90;;
29958;SDS011;16815;51.100;6.516;2023-04-22T00:24:44;6.73;;;5.93;;
29958;SDS011;16815;51.100;6.516;2023-04-22T00:27:10;6.07;;;5.13;;
29958;SDS011;16815;51.100;6.516;2023-04-22T00:29:36;5.97;;;5.37;;
29958;SDS011;16815;51.100;6.516;2023-04-22T00:32:03;10.03;;;6.20;;
29958;SDS011;16815;51.100;6.516;2023-04-22T00:34:29;8.50;;;6.20;;
29958;SDS011;16815;51.100;6.516;2023-04-22T00:36:55;7.13;;;5.97;;
29958;SDS011;16815;51.100;6.516;2023-04-22T00:39:21;7.07;;;5.70;;
29958;SDS011;16815;51.100;6.516;2023-04-22T00:41:47;7.83;;;6.17;;
29958;SDS011;16815;51.100;6.516;2023-04-22T00:44:13;7.93;;;5.90;;
29958;SDS011;16815;51.100;6.516;2023-04-22T00:46:39;8.67;;;6.00;;
29958;SDS011;16815;51.100;6.516;2023-04-22T00:49:06;7.30;;;5.93;;
29958;SDS011;16815;51.100;6.516;2023-04-22T00:51:32;9.27;;;6.50;;
29958;SDS011;16815;51.100;6.516;2023-04-22T00:53:58;10.13;;;7.40;;
29958;SDS011;16815;51.100;6.516;2023-04-22T00:56:26;8.87;;;7.27;;
29958;SDS011;16815;51.100;6.516;2023-04-22T00:58:52;8.70;;;6.80;;
29958;SDS011;16815;51.100;6.516;2023-04-22T01:01:19;7.77;;;6.50;;
29958;SDS011;16815;51.100;6.516;2023-04-22T01:03:45;7.67;;;6.60;;
29958;SDS011;16815;51.100;6.516;2023-04-22T01:06:12;7.63;;;6.83;;
29958;SDS011;16815;51.100;6.516;2023-04-22T01:08:38;11.10;;;7.47;;
29958;SDS011;16815;51.100;6.516;2023-04-22T01:11:05;7.87;;;7.07;;
29958;SDS011;16815;51.100;6.516;2023-04-22T01:13:31;7.57;;;6.77;;
29958;SDS011;16815;51.100;6.516;2023-04-22T01:15:57;8.30;;;6.97;;
29958;SDS011;16815;51.100;6.516;2023-04-22T01:18:23;7.57;;;6.33;;
29958;SDS011;16815;51.100;6.516;2023-04-22T01:20:50;7.00;;;6.03;;
29958;SDS011;16815;51.100;6.516;2023-04-22T01:23:19;8.03;;;7.10;;
29958;SDS011;16815;51.100;6.516;2023-04-22T01:25:46;8.73;;;7.10;;
29958;SDS011;16815;51.100;6.516;2023-04-22T01:28:12;7.73;;;7.00;;
29958;SDS011;16815;51.100;6.516;2023-04-22T01:30:40;9.90;;;7.10;;
29958;SDS011;16815;51.100;6.516;2023-04-22T01:33:06;8.40;;;7.13;;
29958;SDS011;16815;51.100;6.516;2023-04-22T01:35:32;8.37;;;7.43;;
29958;SDS011;16815;51.100;6.516;2023-04-22T01:38:01;9.50;;;7.33;;
29958;SDS011;16815;51.100;6.516;2023-04-22T01:40:27;7.07;;;6.37;;
29958;SDS011;16815;51.100;6.516;2023-04-22T01:42:54;7.33;;;6.53;;
29958;SDS011;16815;51.100;6.516;2023-04-22T01:45:20;8.67;;;7.03;;
29958;SDS011;16815;51.100;6.516;2023-04-22T01:47:46;7.20;;;6.50;;
29958;SDS011;16815;51.100;6.516;2023-04-22T01:50:12;8.50;;;7.37;;
29958;SDS011;16815;51.100;6.516;2023-04-22T01:52:38;8.17;;;7.23;;
29958;SDS011;16815;51.100;6.516;2023-04-22T01:55:04;8.13;;;6.00;;
29958;SDS011;16815;51.100;6.516;2023-04-22T01:57:30;8.37;;;6.70;;
29958;SDS011;16815;51.100;6.516;2023-04-22T01:59:56;7.57;;;6.43;;
29958;SDS011;16815;51.100;6.516;2023-04-22T02:02:22;6.73;;;6.03;;
29958;SDS011;16815;51.100;6.516;2023-04-22T02:04:48;7.20;;;6.37;;
29958;SDS011;16815;51.100;6.516;2023-04-22T02:07:14;7.80;;;6.43;;
29958;SDS011;16815;51.100;6.516;2023-04-22T02:09:40;8.27;;;6.87;;
29958;SDS011;16815;51.100;6.516;2023-04-22T02:12:06;9.03;;;7.33;;
29958;SDS011;16815;51.100;6.516;2023-04-22T02:14:32;8.37;;;7.17;;
29958;SDS011;16815;51.100;6.516;2023-04-22T02:16:58;9.17;;;8.10;;
29958;SDS011;16815;51.100;6.516;2023-04-22T02:19:26;8.33;;;7.43;;
29958;SDS011;16815;51.100;6.516;2023-04-22T02:21:52;10.53;;;7.87;;
29958;SDS011;16815;51.100;6.516;2023-04-22T02:24:18;8.97;;;7.40;;
29958;SDS011;16815;51.100;6.516;2023-04-22T02:26:44;10.00;;;7.73;;
29958;SDS011;16815;51.100;6.516;2023-04-22T02:29:11;9.73;;;8.13;;
29958;SDS011;16815;51.100;6.516;2023-04-22T02:31:37;9.13;;;8.23;;
29958;SDS011;16815;51.100;6.516;2023-04-22T02:34:03;9.07;;;7.67;;
29958;SDS011;16815;51.100;6.516;2023-04-22T02:36:29;10.70;;;8.10;;
29958;SDS011;16815;51.100;6.516;2023-04-22T02:38:56;11.97;;;9.97;;
29958;SDS011;16815;51.100;6.516;2023-04-22T02:41:22;12.60;;;9.87;;
29958;SDS011;16815;51.100;6.516;2023-04-22T02:43:48;10.83;;;9.43;;
29958;SDS011;16815;51.100;6.516;2023-04-22T02:46:14;9.83;;;8.83;;
29958;SDS011;16815;51.100;6.516;2023-04-22T02:48:40;9.97;;;8.90;;
29958;SDS011;16815;51.100;6.516;2023-04-22T02:51:07;10.70;;;9.00;;
29958;SDS011;16815;51.100;6.516;2023-04-22T02:53:33;10.87;;;9.13;;
29958;SDS011;16815;51.100;6.516;2023-04-22T02:55:59;10.00;;;8.97;;
29958;SDS011;16815;51.100;6.516;2023-04-22T02:58:25;12.27;;;10.47;;
29958;SDS011;16815;51.100;6.516;2023-04-22T03:00:51;13.57;;;12.17;;
29958;SDS011;16815;51.100;6.516;2023-04-22T03:03:17;13.83;;;10.57;;
29958;SDS011;16815;51.100;6.516;2023-04-22T03:05:43;12.17;;;10.97;;
29958;SDS011;16815;51.100;6.516;2023-04-22T03:08:09;15.93;;;13.50;;
29958;SDS011;16815;51.100;6.516;2023-04-22T03:10:35;14.13;;;12.37;;
29958;SDS011;16815;51.100;6.516;2023-04-22T03:13:01;16.17;;;13.80;;
29958;SDS011;16815;51.100;6.516;2023-04-22T03:15:27;15.70;;;13.07;;
29958;SDS011;16815;51.100;6.516;2023-04-22T03:17:53;16.13;;;14.43;;
29958;SDS011;16815;51.100;6.516;2023-04-22T03:20:19;17.00;;;14.40;;
29958;SDS011;16815;51.100;6.516;2023-04-22T03:22:45;16.70;;;14.37;;
29958;SDS011;16815;51.100;6.516;2023-04-22T03:25:11;16.90;;;15.07;;
29958;SDS011;16815;51.100;6.516;2023-04-22T03:27:37;17.47;;;13.60;;
29958;SDS011;16815;51.100;6.516;2023-04-22T03:30:03;17.83;;;15.00;;
29958;SDS011;16815;51.100;6.516;2023-04-22T03:32:29;17.27;;;14.43;;
29958;SDS011;16815;51.100;6.516;2023-04-22T03:34:55;17.30;;;14.73;;
29958;SDS011;16815;51.100;6.516;2023-04-22T03:37:21;15.83;;;14.00;;
29958;SDS011;16815;51.100;6.516;2023-04-22T03:39:47;16.13;;;14.30;;
29958;SDS011;16815;51.100;6.516;2023-04-22T03:42:13;18.73;;;14.60;;
29958;SDS011;16815;51.100;6.516;2023-04-22T03:44:39;16.67;;;14.60;;
29958;SDS011;16815;51.100;6.516;2023-04-22T03:47:05;16.80;;;13.93;;
29958;SDS011;16815;51.100;6.516;2023-04-22T03:49:31;16.43;;;13.93;;
29958;SDS011;16815;51.100;6.516;2023-04-22T03:51:57;16.07;;;13.70;;
29958;SDS011;16815;51.100;6.516;2023-04-22T03:54:24;16.13;;;13.20;;
29958;SDS011;16815;51.100;6.516;2023-04-22T03:56:50;14.83;;;13.23;;
29958;SDS011;16815;51.100;6.516;2023-04-22T03:59:16;14.60;;;13.00;;
29958;SDS011;16815;51.100;6.516;2023-04-22T04:01:44;15.43;;;12.43;;
29958;SDS011;16815;51.100;6.516;2023-04-22T04:04:10;14.53;;;12.67;;
29958;SDS011;16815;51.100;6.516;2023-04-22T04:06:36;14.30;;;12.80;;
29958;SDS011;16815;51.100;6.516;2023-04-22T04:09:02;14.33;;;12.53;;
29958;SDS011;16815;51.100;6.516;2023-04-22T04:11:29;15.13;;;11.67;;
29958;SDS011;16815;51.100;6.516;2023-04-22T04:13:55;14.13;;;12.47;;
29958;SDS011;16815;51.100;6.516;2023-04-22T04:16:21;14.93;;;12.40;;
29958;SDS011;16815;51.100;6.516;2023-04-22T04:18:50;14.43;;;12.13;;
29958;SDS011;16815;51.100;6.516;2023-04-22T04:21:16;15.27;;;11.27;;
29958;SDS011;16815;51.100;6.516;2023-04-22T04:23:42;12.40;;;11.10;;
29958;SDS011;16815;51.100;6.516;2023-04-22T04:26:08;13.03;;;11.57;;
29958;SDS011;16815;51.100;6.516;2023-04-22T04:28:34;13.00;;;11.00;;
29958;SDS011;16815;51.100;6.516;2023-04-22T04:31:00;13.73;;;12.10;;
29958;SDS011;16815;51.100;6.516;2023-04-22T04:33:27;14.33;;;11.90;;
29958;SDS011;16815;51.100;6.516;2023-04-22T04:35:53;14.50;;;11.53;;
29958;SDS011;16815;51.100;6.516;2023-04-22T04:38:19;12.50;;;11.20;;
29958;SDS011;16815;51.100;6.516;2023-04-22T04:40:47;13.07;;;10.93;;
29958;SDS011;16815;51.100;6.516;2023-04-22T04:43:13;11.23;;;10.03;;
29958;SDS011;16815;51.100;6.516;2023-04-22T04:45:39;12.97;;;10.07;;
29958;SDS011;16815;51.100;6.516;2023-04-22T04:48:10;12.03;;;9.97;;
29958;SDS011;16815;51.100;6.516;2023-04-22T04:50:36;11.17;;;9.97;;
29958;SDS011;16815;51.100;6.516;2023-04-22T04:53:02;11.10;;;10.00;;
29958;SDS011;16815;51.100;6.516;2023-04-22T04:55:28;12.70;;;10.03;;
29958;SDS011;16815;51.100;6.516;2023-04-22T04:57:54;11.53;;;9.20;;
29958;SDS011;16815;51.100;6.516;2023-04-22T05:00:20;10.37;;;9.07;;
29958;SDS011;16815;51.100;6.516;2023-04-22T05:02:46;11.00;;;9.87;;
29958;SDS011;16815;51.100;6.516;2023-04-22T05:05:12;11.00;;;9.77;;
29958;SDS011;16815;51.100;6.516;2023-04-22T05:07:38;11.07;;;9.80;;
29958;SDS011;16815;51.100;6.516;2023-04-22T05:10:04;9.97;;;8.90;;
29958;SDS011;16815;51.100;6.516;2023-04-22T05:12:30;9.87;;;8.90;;
29958;SDS011;16815;51.100;6.516;2023-04-22T05:14:56;10.37;;;9.20;;
29958;SDS011;16815;51.100;6.516;2023-04-22T05:17:22;9.60;;;8.03;;
29958;SDS011;16815;51.100;6.516;2023-04-22T05:19:48;9.07;;;8.17;;
29958;SDS011;16815;51.100;6.516;2023-04-22T05:22:14;8.83;;;7.93;;
29958;SDS011;16815;51.100;6.516;2023-04-22T05:24:41;8.77;;;7.90;;
29958;SDS011;16815;51.100;6.516;2023-04-22T05:27:07;8.30;;;7.20;;
29958;SDS011;16815;51.100;6.516;2023-04-22T05:29:33;8.93;;;8.03;;
29958;SDS011;16815;51.100;6.516;2023-04-22T05:31:59;8.43;;;7.63;;
29958;SDS011;16815;51.100;6.516;2023-04-22T05:34:25;8.60;;;7.67;;
29958;SDS011;16815;51.100;6.516;2023-04-22T05:36:51;10.03;;;8.43;;
29958;SDS011;16815;51.100;6.516;2023-04-22T05:39:18;10.20;;;7.80;;
29958;SDS011;16815;51.100;6.516;2023-04-22T05:41:44;9.67;;;7.90;;
29958;SDS011;16815;51.100;6.516;2023-04-22T05:44:11;12.30;;;7.80;;
29958;SDS011;16815;51.100;6.516;2023-04-22T05:46:37;9.00;;;7.80;;
29958;SDS011;16815;51.100;6.516;2023-04-22T05:49:03;8.63;;;7.63;;
29958;SDS011;16815;51.100;6.516;2023-04-22T05:51:29;7.90;;;7.10;;
29958;SDS011;16815;51.100;6.516;2023-04-22T05:53:56;8.53;;;7.40;;
29958;SDS011;16815;51.100;6.516;2023-04-22T05:56:22;9.60;;;7.37;;
29958;SDS011;16815;51.100;6.516;2023-04-22T05:58:48;7.67;;;6.87;;
29958;SDS011;16815;51.100;6.516;2023-04-22T06:01:14;8.57;;;7.67;;
29958;SDS011;16815;51.100;6.516;2023-04-22T06:03:40;7.50;;;6.80;;
29958;SDS011;16815;51.100;6.516;2023-04-22T06:06:06;8.40;;;7.50;;
29958;SDS011;16815;51.100;6.516;2023-04-22T06:08:32;7.70;;;6.90;;
29958;SDS011;16815;51.100;6.516;2023-04-22T06:10:58;7.33;;;6.63;;
29958;SDS011;16815;51.100;6.516;2023-04-22T06:13:24;7.63;;;6.83;;
29958;SDS011;16815;51.100;6.516;2023-04-22T06:15:51;8.70;;;6.73;;
29958;SDS011;16815;51.100;6.516;2023-04-22T06:18:17;7.03;;;5.93;;
29958;SDS011;16815;51.100;6.516;2023-04-22T06:20:43;7.23;;;6.27;;
29958;SDS011;16815;51.100;6.516;2023-04-22T06:23:09;6.10;;;5.60;;
29958;SDS011;16815;51.100;6.516;2023-04-22T06:25:35;7.67;;;5.50;;
29958;SDS011;16815;51.100;6.516;2023-04-22T06:28:01;6.43;;;5.83;;
29958;SDS011;16815;51.100;6.516;2023-04-22T06:30:27;7.30;;;5.00;;
29958;SDS011;16815;51.100;6.516;2023-04-22T06:32:53;8.57;;;5.60;;
29958;SDS011;16815;51.100;6.516;2023-04-22T06:35:19;8.03;;;5.90;;
29958;SDS011;16815;51.100;6.516;2023-04-22T06:37:45;5.87;;;5.30;;
29958;SDS011;16815;51.100;6.516;2023-04-22T06:40:12;5.77;;;5.17;;
29958;SDS011;16815;51.100;6.516;2023-04-22T06:42:39;6.10;;;5.30;;
29958;SDS011;16815;51.100;6.516;2023-04-22T06:45:05;7.77;;;6.50;;
29958;SDS011;16815;51.100;6.516;2023-04-22T06:47:33;5.77;;;5.23;;
29958;SDS011;16815;51.100;6.516;2023-04-22T06:50:00;5.37;;;4.50;;
29958;SDS011;16815;51.100;6.516;2023-04-22T06:52:26;5.60;;;5.00;;
29958;SDS011;16815;51.100;6.516;2023-04-22T06:54:52;4.80;;;4.10;;
29958;SDS011;16815;51.100;6.516;2023-04-22T06:57:18;5.43;;;4.90;;
29958;SDS011;16815;51.100;6.516;2023-04-22T06:59:43;4.53;;;4.13;;
29958;SDS011;16815;51.100;6.516;2023-04-22T07:02:10;5.30;;;4.80;;
29958;SDS011;16815;51.100;6.516;2023-04-22T07:04:36;6.47;;;4.80;;
29958;SDS011;16815;51.100;6.516;2023-04-22T07:07:02;6.13;;;4.00;;
29958;SDS011;16815;51.100;6.516;2023-04-22T07:09:28;6.50;;;4.33;;
29958;SDS011;16815;51.100;6.516;2023-04-22T07:11:53;5.30;;;4.30;;
29958;SDS011;16815;51.100;6.516;2023-04-22T07:14:21;4.23;;;3.83;;
29958;SDS011;16815;51.100;6.516;2023-04-22T07:16:47;4.93;;;3.60;;
29958;SDS011;16815;51.100;6.516;2023-04-22T07:19:13;4.20;;;3.80;;
29958;SDS011;16815;51.100;6.516;2023-04-22T07:21:39;7.40;;;4.47;;
29958;SDS011;16815;51.100;6.516;2023-04-22T07:24:05;4.27;;;3.53;;
29958;SDS011;16815;51.100;6.516;2023-04-22T07:26:35;3.87;;;3.53;;
29958;SDS011;16815;51.100;6.516;2023-04-22T07:29:02;4.93;;;3.50;;
29958;SDS011;16815;51.100;6.516;2023-04-22T07:31:28;4.50;;;2.90;;
29958;SDS011;16815;51.100;6.516;2023-04-22T07:33:54;3.23;;;2.90;;
29958;SDS011;16815;51.100;6.516;2023-04-22T07:36:20;3.33;;;3.03;;
29958;SDS011;16815;51.100;6.516;2023-04-22T07:38:46;4.00;;;2.87;;
29958;SDS011;16815;51.100;6.516;2023-04-22T07:41:11;4.23;;;3.33;;
29958;SDS011;16815;51.100;6.516;2023-04-22T07:43:38;3.60;;;3.07;;
29958;SDS011;16815;51.100;6.516;2023-04-22T07:46:03;6.53;;;2.90;;
29958;SDS011;16815;51.100;6.516;2023-04-22T07:48:29;3.03;;;2.73;;
29958;SDS011;16815;51.100;6.516;2023-04-22T07:50:55;2.80;;;2.50;;
29958;SDS011;16815;51.100;6.516;2023-04-22T07:53:21;3.57;;;3.00;;
29958;SDS011;16815;51.100;6.516;2023-04-22T07:55:47;4.60;;;3.10;;
29958;SDS011;16815;51.100;6.516;2023-04-22T07:58:13;7.13;;;3.57;;
29958;SDS011;16815;51.100;6.516;2023-04-22T08:00:40;5.63;;;3.20;;
29958;SDS011;16815;51.100;6.516;2023-04-22T08:03:06;10.30;;;3.60;;
29958;SDS011;16815;51.100;6.516;2023-04-22T08:05:32;5.10;;;3.27;;
29958;SDS011;16815;51.100;6.516;2023-04-22T08:07:58;6.07;;;3.17;;
29958;SDS011;16815;51.100;6.516;2023-04-22T08:10:24;3.33;;;2.80;;
29958;SDS011;16815;51.100;6.516;2023-04-22T08:12:50;3.63;;;2.70;;
29958;SDS011;16815;51.100;6.516;2023-04-22T08:15:16;4.80;;;3.30;;
29958;SDS011;16815;51.100;6.516;2023-04-22T08:17:48;3.63;;;2.53;;
29958;SDS011;16815;51.100;6.516;2023-04-22T08:20:14;5.73;;;3.40;;
29958;SDS011;16815;51.100;6.516;2023-04-22T08:22:41;4.73;;;2.87;;
29958;SDS011;16815;51.100;6.516;2023-04-22T08:25:08;4.07;;;2.70;;
29958;SDS011;16815;51.100;6.516;2023-04-22T08:27:34;2.83;;;2.60;;
29958;SDS011;16815;51.100;6.516;2023-04-22T08:30:00;3.10;;;2.50;;
29958;SDS011;16815;51.100;6.516;2023-04-22T08:32:26;5.40;;;2.53;;
29958;SDS011;16815;51.100;6.516;2023-04-22T08:34:52;4.90;;;2.40;;
29958;SDS011;16815;51.100;6.516;2023-04-22T08:37:18;3.03;;;2.73;;
29958;SDS011;16815;51.100;6.516;2023-04-22T08:39:44;2.77;;;2.57;;
29958;SDS011;16815;51.100;6.516;2023-04-22T08:42:11;2.47;;;2.20;;
29958;SDS011;16815;51.100;6.516;2023-04-22T08:44:37;2.80;;;2.30;;
29958;SDS011;16815;51.100;6.516;2023-04-22T08:47:04;2.70;;;2.43;;
29958;SDS011;16815;51.100;6.516;2023-04-22T08:49:30;4.53;;;2.30;;
29958;SDS011;16815;51.100;6.516;2023-04-22T08:51:56;2.60;;;2.40;;
29958;SDS011;16815;51.100;6.516;2023-04-22T08:54:22;3.50;;;2.47;;
29958;SDS011;16815;51.100;6.516;2023-04-22T08:56:49;5.60;;;2.17;;
29958;SDS011;16815;51.100;6.516;2023-04-22T08:59:15;2.73;;;2.30;;
29958;SDS011;16815;51.100;6.516;2023-04-22T09:01:41;3.03;;;2.60;;
29958;SDS011;16815;51.100;6.516;2023-04-22T09:04:08;2.80;;;2.43;;
29958;SDS011;16815;51.100;6.516;2023-04-22T09:06:34;2.47;;;1.93;;
29958;SDS011;16815;51.100;6.516;2023-04-22T09:09:00;4.70;;;2.80;;
29958;SDS011;16815;51.100;6.516;2023-04-22T09:11:27;1.93;;;1.83;;
29958;SDS011;16815;51.100;6.516;2023-04-22T09:13:53;4.60;;;2.37;;
29958;SDS011;16815;51.100;6.516;2023-04-22T09:16:19;2.53;;;2.03;;
29958;SDS011;16815;51.100;6.516;2023-04-22T09:18:45;2.23;;;1.90;;
29958;SDS011;16815;51.100;6.516;2023-04-22T09:21:11;2.47;;;1.90;;
29958;SDS011;16815;51.100;6.516;2023-04-22T09:23:50;4.90;;;2.67;;
29958;SDS011;16815;51.100;6.516;2023-04-22T09:26:20;5.93;;;3.07;;
29958;SDS011;16815;51.100;6.516;2023-04-22T09:28:48;9.37;;;2.90;;
29958;SDS011;16815;51.100;6.516;2023-04-22T09:31:14;6.13;;;2.53;;
29958;SDS011;16815;51.100;6.516;2023-04-22T09:33:40;16.43;;;5.17;;
29958;SDS011;16815;51.100;6.516;2023-04-22T09:36:09;6.67;;;2.97;;
29958;SDS011;16815;51.100;6.516;2023-04-22T09:38:35;10.10;;;2.67;;
29958;SDS011;16815;51.100;6.516;2023-04-22T09:41:01;1.93;;;1.80;;
29958;SDS011;16815;51.100;6.516;2023-04-22T09:43:33;2.20;;;2.00;;
29958;SDS011;16815;51.100;6.516;2023-04-22T09:45:59;3.90;;;1.80;;
29958;SDS011;16815;51.100;6.516;2023-04-22T09:48:25;14.83;;;2.17;;
29958;SDS011;16815;51.100;6.516;2023-04-22T09:50:51;3.40;;;2.10;;
29958;SDS011;16815;51.100;6.516;2023-04-22T09:53:17;2.93;;;2.00;;
29958;SDS011;16815;51.100;6.516;2023-04-22T09:58:50;7.20;;;2.30;;
29958;SDS011;16815;51.100;6.516;2023-04-22T10:01:17;5.33;;;2.27;;
29958;SDS011;16815;51.100;6.516;2023-04-22T10:03:44;4.33;;;2.57;;
29958;SDS011;16815;51.100;6.516;2023-04-22T10:06:09;5.27;;;2.40;;
29958;SDS011;16815;51.100;6.516;2023-04-22T10:08:36;3.83;;;2.20;;
29958;SDS011;16815;51.100;6.516;2023-04-22T10:11:02;5.17;;;2.93;;
29958;SDS011;16815;51.100;6.516;2023-04-22T10:13:28;8.47;;;2.80;;
29958;SDS011;16815;51.100;6.516;2023-04-22T10:15:54;8.03;;;3.27;;
29958;SDS011;16815;51.100;6.516;2023-04-22T10:18:22;10.20;;;3.03;;
29958;SDS011;16815;51.100;6.516;2023-04-22T10:20:49;4.70;;;3.40;;
29958;SDS011;16815;51.100;6.516;2023-04-22T10:23:18;7.03;;;2.43;;
29958;SDS011;16815;51.100;6.516;2023-04-22T10:25:48;3.63;;;2.33;;
29958;SDS011;16815;51.100;6.516;2023-04-22T10:28:15;3.80;;;2.20;;
29958;SDS011;16815;51.100;6.516;2023-04-22T10:30:41;3.87;;;2.30;;
29958;SDS011;16815;51.100;6.516;2023-04-22T10:38:38;2.77;;;2.30;;
29958;SDS011;16815;51.100;6.516;2023-04-22T10:41:04;3.93;;;2.20;;
29958;SDS011;16815;51.100;6.516;2023-04-22T10:43:40;3.27;;;2.23;;
29958;SDS011;16815;51.100;6.516;2023-04-22T10:46:06;4.53;;;2.33;;
29958;SDS011;16815;51.100;6.516;2023-04-22T10:48:48;3.13;;;2.40;;
29958;SDS011;16815;51.100;6.516;2023-04-22T10:51:59;5.27;;;2.30;;
29958;SDS011;16815;51.100;6.516;2023-04-22T10:54:00;2.13;;;1.93;;
29958;SDS011;16815;51.100;6.516;2023-04-22T10:56:26;4.23;;;2.70;;
29958;SDS011;16815;51.100;6.516;2023-04-22T10:58:54;2.57;;;2.10;;
29958;SDS011;16815;51.100;6.516;2023-04-22T11:01:20;4.13;;;2.40;;
29958;SDS011;16815;51.100;6.516;2023-04-22T11:03:46;4.27;;;2.30;;
29958;SDS011;16815;51.100;6.516;2023-04-22T11:06:16;5.07;;;2.10;;
29958;SDS011;16815;51.100;6.516;2023-04-22T11:08:48;6.97;;;4.07;;
29958;SDS011;16815;51.100;6.516;2023-04-22T11:11:18;6.00;;;2.50;;
29958;SDS011;16815;51.100;6.516;2023-04-22T11:13:45;6.83;;;2.53;;
29958;SDS011;16815;51.100;6.516;2023-04-22T11:16:11;4.20;;;2.70;;
29958;SDS011;16815;51.100;6.516;2023-04-22T11:18:37;4.43;;;2.30;;
29958;SDS011;16815;51.100;6.516;2023-04-22T11:21:04;4.03;;;2.47;;
29958;SDS011;16815;51.100;6.516;2023-04-22T11:23:30;9.30;;;2.63;;
29958;SDS011;16815;51.100;6.516;2023-04-22T11:25:57;3.55;;;2.53;;
29958;SDS011;16815;51.100;6.516;2023-04-22T11:28:23;5.20;;;2.38;;
29958;SDS011;16815;51.100;6.516;2023-04-22T11:30:50;2.95;;;2.20;;
29958;SDS011;16815;51.100;6.516;2023-04-22T11:33:16;4.80;;;2.20;;
29958;SDS011;16815;51.100;6.516;2023-04-22T11:35:42;3.85;;;2.47;;
29958;SDS011;16815;51.100;6.516;2023-04-22T11:38:08;3.75;;;2.47;;
29958;SDS011;16815;51.100;6.516;2023-04-22T11:40:35;3.15;;;2.10;;
29958;SDS011;16815;51.100;6.516;2023-04-22T11:43:03;5.82;;;2.25;;
29958;SDS011;16815;51.100;6.516;2023-04-22T11:45:30;5.40;;;2.40;;
29958;SDS011;16815;51.100;6.516;2023-04-22T11:47:56;2.67;;;2.00;;
29958;SDS011;16815;51.100;6.516;2023-04-22T11:50:23;2.67;;;2.00;;
29958;SDS011;16815;51.100;6.516;2023-04-22T11:57:43;3.85;;;2.45;;
29958;SDS011;16815;51.100;6.516;2023-04-22T12:00:10;3.78;;;2.20;;
29958;SDS011;16815;51.100;6.516;2023-04-22T12:02:37;2.80;;;2.03;;
29958;SDS011;16815;51.100;6.516;2023-04-22T12:05:03;6.32;;;2.20;;
29958;SDS011;16815;51.100;6.516;2023-04-22T12:07:30;4.90;;;2.55;;
29958;SDS011;16815;51.100;6.516;2023-04-22T12:09:57;6.72;;;2.83;;
29958;SDS011;16815;51.100;6.516;2023-04-22T12:12:25;6.82;;;2.47;;
29958;SDS011;16815;51.100;6.516;2023-04-22T12:14:51;3.15;;;2.28;;
29958;SDS011;16815;51.100;6.516;2023-04-22T12:17:23;5.20;;;2.30;;
29958;SDS011;16815;51.100;6.516;2023-04-22T12:19:55;4.38;;;2.25;;
29958;SDS011;16815;51.100;6.516;2023-04-22T12:22:25;3.83;;;2.10;;
29958;SDS011;16815;51.100;6.516;2023-04-22T12:24:51;3.67;;;2.35;;
29958;SDS011;16815;51.100;6.516;2023-04-22T12:27:23;4.18;;;2.10;;
29958;SDS011;16815;51.100;6.516;2023-04-22T12:29:50;7.47;;;2.40;;
29958;SDS011;16815;51.100;6.516;2023-04-22T12:32:17;3.25;;;2.25;;
29958;SDS011;16815;51.100;6.516;2023-04-22T12:34:43;3.58;;;2.30;;
29958;SDS011;16815;51.100;6.516;2023-04-22T12:37:09;4.20;;;2.05;;
29958;SDS011;16815;51.100;6.516;2023-04-22T12:39:35;4.78;;;2.33;;
29958;SDS011;16815;51.100;6.516;2023-04-22T12:42:02;4.82;;;2.20;;
29958;SDS011;16815;51.100;6.516;2023-04-22T12:44:29;4.43;;;2.30;;
29958;SDS011;16815;51.100;6.516;2023-04-22T12:46:55;5.50;;;1.90;;
29958;SDS011;16815;51.100;6.516;2023-04-22T12:49:21;10.88;;;2.15;;
29958;SDS011;16815;51.100;6.516;2023-04-22T12:51:47;3.35;;;2.10;;
29958;SDS011;16815;51.100;6.516;2023-04-22T12:54:13;5.10;;;2.30;;
29958;SDS011;16815;51.100;6.516;2023-04-22T12:56:39;5.07;;;1.50;;
29958;SDS011;16815;51.100;6.516;2023-04-22T12:59:05;2.53;;;1.50;;
29958;SDS011;16815;51.100;6.516;2023-04-22T13:01:31;3.65;;;1.90;;
29958;SDS011;16815;51.100;6.516;2023-04-22T13:03:57;3.77;;;1.50;;
29958;SDS011;16815;51.100;6.516;2023-04-22T13:06:23;5.80;;;1.80;;
29958;SDS011;16815;51.100;6.516;2023-04-22T13:08:49;2.67;;;1.70;;
29958;SDS011;16815;51.100;6.516;2023-04-22T13:11:15;2.10;;;1.80;;
29958;SDS011;16815;51.100;6.516;2023-04-22T13:13:41;6.53;;;1.90;;
29958;SDS011;16815;51.100;6.516;2023-04-22T13:16:07;2.57;;;2.00;;
29958;SDS011;16815;51.100;6.516;2023-04-22T13:18:33;3.10;;;1.87;;
29958;SDS011;16815;51.100;6.516;2023-04-22T13:20:59;4.33;;;2.00;;
29958;SDS011;16815;51.100;6.516;2023-04-22T13:23:25;10.03;;;2.83;;
29958;SDS011;16815;51.100;6.516;2023-04-22T13:25:51;2.93;;;1.90;;
29958;SDS011;16815;51.100;6.516;2023-04-22T13:28:18;4.97;;;2.00;;
29958;SDS011;16815;51.100;6.516;2023-04-22T13:30:44;2.40;;;1.77;;
29958;SDS011;16815;51.100;6.516;2023-04-22T13:33:10;4.90;;;2.40;;
29958;SDS011;16815;51.100;6.516;2023-04-22T13:35:36;7.30;;;2.43;;
29958;SDS011;16815;51.100;6.516;2023-04-22T13:38:02;3.30;;;2.23;;
29958;SDS011;16815;51.100;6.516;2023-04-22T13:40:32;5.27;;;2.47;;
29958;SDS011;16815;51.100;6.516;2023-04-22T13:42:58;3.80;;;2.00;;
29958;SDS011;16815;51.100;6.516;2023-04-22T13:45:32;5.07;;;2.47;;
29958;SDS011;16815;51.100;6.516;2023-04-22T13:47:57;7.83;;;1.90;;
29958;SDS011;16815;51.100;6.516;2023-04-22T13:50:23;3.30;;;1.83;;
29958;SDS011;16815;51.100;6.516;2023-04-22T13:52:52;3.27;;;2.00;;
29958;SDS011;16815;51.100;6.516;2023-04-22T13:55:20;5.00;;;2.23;;
29958;SDS011;16815;51.100;6.516;2023-04-22T13:57:46;5.37;;;2.43;;
29958;SDS011;16815;51.100;6.516;2023-04-22T14:00:17;4.10;;;2.50;;
29958;SDS011;16815;51.100;6.516;2023-04-22T14:02:46;5.03;;;2.30;;
29958;SDS011;16815;51.100;6.516;2023-04-22T14:05:12;3.00;;;1.93;;
29958;SDS011;16815;51.100;6.516;2023-04-22T14:07:38;4.03;;;2.37;;
29958;SDS011;16815;51.100;6.516;2023-04-22T14:10:04;4.17;;;1.83;;
29958;SDS011;16815;51.100;6.516;2023-04-22T14:12:35;5.63;;;2.50;;
29958;SDS011;16815;51.100;6.516;2023-04-22T14:15:01;4.30;;;2.33;;
29958;SDS011;16815;51.100;6.516;2023-04-22T14:17:38;3.47;;;2.07;;
29958;SDS011;16815;51.100;6.516;2023-04-22T14:20:07;2.93;;;2.10;;
29958;SDS011;16815;51.100;6.516;2023-04-22T14:22:35;3.60;;;2.13;;
29958;SDS011;16815;51.100;6.516;2023-04-22T14:25:01;4.10;;;2.43;;
29958;SDS011;16815;51.100;6.516;2023-04-22T14:27:26;2.97;;;2.37;;
29958;SDS011;16815;51.100;6.516;2023-04-22T14:29:52;3.23;;;2.27;;
29958;SDS011;16815;51.100;6.516;2023-04-22T14:32:19;2.33;;;2.13;;
29958;SDS011;16815;51.100;6.516;2023-04-22T14:34:45;3.93;;;2.10;;
29958;SDS011;16815;51.100;6.516;2023-04-22T14:37:11;3.47;;;2.00;;
29958;SDS011;16815;51.100;6.516;2023-04-22T14:39:37;5.93;;;2.83;;
29958;SDS011;16815;51.100;6.516;2023-04-22T14:42:03;4.77;;;2.40;;
29958;SDS011;16815;51.100;6.516;2023-04-22T14:44:29;7.63;;;3.23;;
29958;SDS011;16815;51.100;6.516;2023-04-22T14:46:55;5.40;;;2.20;;
29958;SDS011;16815;51.100;6.516;2023-04-22T14:49:24;6.57;;;2.40;;
29958;SDS011;16815;51.100;6.516;2023-04-22T14:51:50;5.23;;;2.57;;